createdAt,value
2019-03-15T00:00:55.683Z,83.02
2019-03-15T00:03:24.606Z,83.25
2019-03-15T00:05:52.612Z,82.85
2019-03-15T00:08:21.019Z,83.34
2019-03-15T00:10:49.044Z,83.33
2019-03-15T00:13:17.005Z,82.84
2019-03-15T00:15:44.902Z,83.55
2019-03-15T00:18:13.105Z,83.20
2019-03-15T00:20:41.234Z,83.22
2019-03-15T00:23:09.156Z,83.32
2019-03-15T00:25:37.100Z,82.99
2019-03-15T00:28:05.170Z,83.03
2019-03-15T00:30:33.290Z,82.92
2019-03-15T00:33:01.346Z,83.16
2019-03-15T00:35:29.381Z,82.87
2019-03-15T00:37:57.347Z,83.01
2019-03-15T00:40:25.367Z,82.78
2019-03-15T00:42:53.467Z,82.59
2019-03-15T00:45:21.485Z,82.44
2019-03-15T00:47:49.633Z,82.62
2019-03-15T00:50:17.758Z,81.84
2019-03-15T00:52:45.797Z,81.97
2019-03-15T00:55:15.040Z,81.88
2019-03-15T00:57:42.891Z,82.27
2019-03-15T01:00:12.321Z,81.98
2019-03-15T01:02:40.448Z,82.14
2019-03-15T01:05:08.597Z,82.28
2019-03-15T01:07:36.715Z,82.59
2019-03-15T01:10:04.948Z,83.32
2019-03-15T01:12:33.033Z,83.13
2019-03-15T01:15:01.074Z,83.60
2019-03-15T01:17:29.114Z,83.41
2019-03-15T01:19:57.080Z,83.87
2019-03-15T01:22:25.187Z,83.59
2019-03-15T01:24:53.245Z,83.47
2019-03-15T01:27:21.251Z,83.40
2019-03-15T01:29:49.519Z,83.86
2019-03-15T01:32:17.611Z,84.03
2019-03-15T01:34:45.651Z,84.04
2019-03-15T01:37:13.792Z,84.10
2019-03-15T01:39:41.662Z,84.15
2019-03-15T01:42:09.675Z,84.59
2019-03-15T01:44:37.778Z,85.07
2019-03-15T01:47:05.912Z,85.96
2019-03-15T01:49:33.875Z,86.26
2019-03-15T01:52:01.896Z,86.75
2019-03-15T01:54:29.819Z,86.08
2019-03-15T01:57:10.418Z,86.51
2019-03-15T01:59:38.405Z,87.00
2019-03-15T02:02:06.536Z,86.88
2019-03-15T02:04:34.592Z,88.24
2019-03-15T02:07:02.711Z,88.97
2019-03-15T02:09:30.571Z,90.12
2019-03-15T02:11:58.507Z,88.57
2019-03-15T02:14:26.354Z,88.53
2019-03-15T02:16:54.444Z,89.04
2019-03-15T02:19:22.890Z,88.70
2019-03-15T02:21:50.992Z,89.43
2019-03-15T02:24:18.957Z,89.91
2019-03-15T02:26:48.483Z,90.23
2019-03-15T02:29:16.699Z,91.35
2019-03-15T02:31:44.713Z,90.70
2019-03-15T02:34:12.779Z,90.40
2019-03-15T02:36:40.937Z,90.73
2019-03-15T02:39:08.859Z,91.34
2019-03-15T02:41:36.999Z,92.19
2019-03-15T02:44:05.256Z,92.64
2019-03-15T02:46:33.366Z,93.31
2019-03-15T02:49:01.539Z,92.88
2019-03-15T02:51:29.521Z,93.02
2019-03-15T02:53:57.338Z,93.21
2019-03-15T02:56:25.507Z,93.49
2019-03-15T02:58:54.191Z,93.14
2019-03-15T03:01:22.413Z,92.97
2019-03-15T03:03:50.514Z,92.81
2019-03-15T03:06:18.457Z,93.05
2019-03-15T03:08:48.464Z,92.52
2019-03-15T03:11:16.499Z,94.20
2019-03-15T03:13:44.583Z,93.98
2019-03-15T03:16:12.662Z,93.95
2019-03-15T03:18:40.714Z,93.90
2019-03-15T03:21:08.736Z,94.62
2019-03-15T03:23:36.846Z,94.80
2019-03-15T03:26:05.137Z,94.82
2019-03-15T03:28:33.101Z,93.67
2019-03-15T03:31:01.140Z,92.89
2019-03-15T03:33:29.087Z,93.08
2019-03-15T03:35:57.012Z,93.11
2019-03-15T03:38:25.105Z,92.80
2019-03-15T03:40:53.174Z,92.54
2019-03-15T03:43:21.289Z,92.58
2019-03-15T03:45:49.305Z,92.65
2019-03-15T03:48:17.414Z,92.21
2019-03-15T03:50:45.467Z,91.35
2019-03-15T03:53:13.563Z,89.90
2019-03-15T03:55:42.226Z,89.68
2019-03-15T03:58:10.261Z,89.72
2019-03-15T04:00:38.313Z,89.44
2019-03-15T04:03:06.429Z,89.40
2019-03-15T04:05:36.868Z,88.90
2019-03-15T04:08:05.447Z,88.63
2019-03-15T04:10:33.508Z,88.96
2019-03-15T04:13:01.644Z,89.26
2019-03-15T04:15:29.679Z,89.73
2019-03-15T04:17:57.759Z,90.49
2019-03-15T04:20:25.701Z,90.29
2019-03-15T04:22:55.400Z,90.09
2019-03-15T04:25:23.601Z,89.83
2019-03-15T04:27:51.466Z,89.58
2019-03-15T04:30:19.450Z,90.34
2019-03-15T04:32:47.666Z,89.62
2019-03-15T04:35:15.725Z,90.15
2019-03-15T04:37:43.742Z,90.51
2019-03-15T04:40:11.839Z,89.89
2019-03-15T04:42:39.875Z,89.40
2019-03-15T04:45:08.186Z,89.32
2019-03-15T04:47:36.150Z,89.21
2019-03-15T04:50:04.665Z,88.92
2019-03-15T04:52:32.597Z,88.74
2019-03-15T04:55:00.818Z,89.27
2019-03-15T04:57:28.880Z,88.02
2019-03-15T04:59:56.904Z,88.16
2019-03-15T05:02:24.853Z,88.09
2019-03-15T05:04:52.982Z,88.23
2019-03-15T05:07:21.139Z,87.83
2019-03-15T05:09:49.271Z,87.92
2019-03-15T05:12:18.133Z,86.72
2019-03-15T05:14:46.232Z,87.04
2019-03-15T05:17:14.446Z,87.27
2019-03-15T05:19:42.544Z,87.02
2019-03-15T05:22:10.512Z,87.42
2019-03-15T05:24:38.630Z,86.82
2019-03-15T05:27:06.642Z,86.96
2019-03-15T05:29:34.773Z,86.13
2019-03-15T05:32:02.829Z,86.32
2019-03-15T05:34:30.832Z,85.55
2019-03-15T05:36:58.852Z,85.40
2019-03-15T05:39:27.751Z,85.78
2019-03-15T05:41:55.753Z,84.94
2019-03-15T05:44:23.849Z,84.80
2019-03-15T05:46:52.110Z,85.16
2019-03-15T05:49:20.053Z,84.80
2019-03-15T05:51:47.901Z,84.84
2019-03-15T05:54:15.947Z,84.78
2019-03-15T05:56:43.980Z,85.59
2019-03-15T05:59:12.084Z,85.32
2019-03-15T06:01:40.247Z,85.05
2019-03-15T06:04:08.345Z,84.80
2019-03-15T06:06:36.368Z,84.53
2019-03-15T06:09:05.620Z,84.42
2019-03-15T06:11:33.697Z,83.99
2019-03-15T06:14:01.781Z,83.69
2019-03-15T06:16:29.780Z,83.70
2019-03-15T06:18:57.970Z,82.95
2019-03-15T06:21:26.024Z,82.93
2019-03-15T06:23:54.148Z,82.78
2019-03-15T06:26:22.095Z,82.90
2019-03-15T06:28:50.591Z,82.33
2019-03-15T06:31:18.668Z,81.44
2019-03-15T06:33:46.728Z,81.15
2019-03-15T06:36:14.748Z,81.36
2019-03-15T06:38:42.625Z,81.34
2019-03-15T06:41:10.738Z,81.53
2019-03-15T06:43:38.790Z,81.08
2019-03-15T06:46:06.925Z,80.67
2019-03-15T06:48:35.026Z,80.19
2019-03-15T06:51:03.178Z,79.19
2019-03-15T06:53:31.199Z,79.33
2019-03-15T06:55:59.422Z,79.62
2019-03-15T06:58:27.266Z,80.28
2019-03-15T07:00:55.329Z,80.20
2019-03-15T07:03:23.254Z,80.74
2019-03-15T07:05:51.469Z,79.73
2019-03-15T07:08:19.500Z,80.24
2019-03-15T07:10:47.634Z,79.53
2019-03-15T07:13:15.562Z,78.94
2019-03-15T07:15:44.485Z,79.63
2019-03-15T07:18:12.687Z,79.08
2019-03-15T07:20:40.800Z,79.92
2019-03-15T07:23:08.820Z,78.77
2019-03-15T07:25:36.931Z,78.60
2019-03-15T07:28:04.931Z,78.02
2019-03-15T07:30:33.060Z,77.86
2019-03-15T07:33:01.003Z,77.84
2019-03-15T07:35:29.103Z,77.54
2019-03-15T07:37:57.145Z,77.53
2019-03-15T07:40:25.081Z,76.49
2019-03-15T07:43:04.572Z,76.36
2019-03-15T07:45:42.907Z,77.11
2019-03-15T07:48:21.695Z,76.45
2019-03-15T07:50:41.279Z,76.44
2019-03-15T07:53:09.240Z,75.34
2019-03-15T07:55:37.337Z,75.77
2019-03-15T07:58:05.766Z,75.15
2019-03-15T08:00:34.374Z,74.92
2019-03-15T08:03:02.440Z,73.68
2019-03-15T08:05:30.431Z,74.43
2019-03-15T08:07:58.472Z,74.50
2019-03-15T08:10:26.477Z,74.69
2019-03-15T08:12:55.224Z,74.49
2019-03-15T08:15:23.231Z,74.08
2019-03-15T08:17:51.190Z,73.84
2019-03-15T08:20:19.314Z,73.68
2019-03-15T08:22:47.398Z,73.82
2019-03-15T08:25:15.514Z,73.34
2019-03-15T08:27:43.482Z,73.42
2019-03-15T08:30:12.060Z,72.95
2019-03-15T08:32:43.509Z,72.46
2019-03-15T08:35:10.344Z,72.37
2019-03-15T08:37:38.457Z,71.32
2019-03-15T08:40:07.563Z,72.13
2019-03-15T08:42:35.659Z,71.72
2019-03-15T08:45:04.626Z,71.60
2019-03-15T08:47:34.847Z,72.24
2019-03-15T08:50:03.560Z,71.79
2019-03-15T08:52:31.488Z,71.91
2019-03-15T08:55:05.140Z,71.82
2019-03-15T08:57:29.449Z,71.97
2019-03-15T08:59:58.027Z,72.06
2019-03-15T09:02:27.094Z,71.32
2019-03-15T09:04:55.035Z,71.39
2019-03-15T09:07:22.969Z,71.35
2019-03-15T09:09:50.936Z,71.32
2019-03-15T09:12:19.036Z,71.92
2019-03-15T09:14:46.964Z,71.31
2019-03-15T09:17:14.883Z,70.92
2019-03-15T09:19:42.886Z,70.91
2019-03-15T09:22:10.994Z,71.88
2019-03-15T09:24:39.019Z,71.28
2019-03-15T09:27:10.255Z,70.80
2019-03-15T09:29:36.889Z,70.09
2019-03-15T09:32:09.059Z,69.73
2019-03-15T09:34:35.023Z,70.00
2019-03-15T09:37:03.150Z,68.12
2019-03-15T09:39:31.191Z,68.23
2019-03-15T09:41:59.196Z,67.18
2019-03-15T09:44:27.235Z,67.96
2019-03-15T09:46:55.293Z,67.31
2019-03-15T09:49:25.541Z,66.74
2019-03-15T09:51:53.531Z,65.87
2019-03-15T09:54:21.449Z,66.35
2019-03-15T09:56:49.552Z,65.41
2019-03-15T09:59:19.401Z,65.26
2019-03-15T10:01:47.634Z,65.25
2019-03-15T10:04:17.187Z,64.86
2019-03-15T10:06:45.589Z,65.45
2019-03-15T10:09:13.561Z,65.43
2019-03-15T10:11:41.685Z,63.49
2019-03-15T10:14:09.652Z,63.23
2019-03-15T10:16:37.671Z,63.04
2019-03-15T10:19:06.586Z,63.14
2019-03-15T10:21:34.715Z,62.33
2019-03-15T10:24:02.751Z,62.84
2019-03-15T10:26:30.825Z,61.96
2019-03-15T10:28:58.682Z,61.79
2019-03-15T10:31:27.043Z,61.76
2019-03-15T10:33:55.250Z,62.08
2019-03-15T10:36:23.213Z,61.70
2019-03-15T10:38:51.325Z,61.86
2019-03-15T10:41:19.164Z,61.75
2019-03-15T10:43:47.142Z,62.55
2019-03-15T10:46:15.841Z,62.78
2019-03-15T10:48:43.841Z,61.30
2019-03-15T10:51:11.832Z,61.86
2019-03-15T10:53:39.850Z,60.91
2019-03-15T10:56:07.793Z,60.40
2019-03-15T10:58:35.677Z,59.40
2019-03-15T11:01:03.738Z,61.30
2019-03-15T11:03:32.654Z,61.01
2019-03-15T11:06:00.586Z,60.89
2019-03-15T11:08:28.694Z,59.96
2019-03-15T11:10:56.612Z,59.37
2019-03-15T11:13:25.767Z,58.66
2019-03-15T11:15:54.393Z,59.10
2019-03-15T11:18:22.558Z,59.12
2019-03-15T11:20:50.677Z,58.82
2019-03-15T11:23:18.806Z,58.73
2019-03-15T11:25:46.758Z,59.34
2019-03-15T11:28:14.981Z,60.09
2019-03-15T11:30:43.916Z,59.73
2019-03-15T11:33:11.962Z,59.37
2019-03-15T11:35:39.939Z,59.82
2019-03-15T11:38:08.577Z,58.37
2019-03-15T11:40:38.192Z,58.90
2019-03-15T11:43:06.607Z,57.86
2019-03-15T11:45:34.728Z,58.16
2019-03-15T11:48:04.313Z,59.15
2019-03-15T11:50:32.943Z,59.37
2019-03-15T11:53:01.332Z,58.38
2019-03-15T11:55:29.357Z,58.37
2019-03-15T11:57:57.484Z,59.22
2019-03-15T12:00:25.663Z,58.68
2019-03-15T12:02:53.787Z,57.84
2019-03-15T12:05:22.344Z,57.45
2019-03-15T12:07:50.535Z,57.91
2019-03-15T12:10:18.563Z,57.43
2019-03-15T12:12:46.573Z,56.85
2019-03-15T12:15:14.613Z,56.56
2019-03-15T12:17:42.693Z,56.01
2019-03-15T12:20:10.829Z,55.71
2019-03-15T12:22:38.760Z,55.03
2019-03-15T12:25:14.325Z,54.85
2019-03-15T12:27:42.328Z,53.70
2019-03-15T12:30:10.369Z,53.66
2019-03-15T12:32:38.329Z,53.13
2019-03-15T12:35:08.466Z,52.90
2019-03-15T12:37:36.496Z,53.24
2019-03-15T12:40:05.388Z,52.12
2019-03-15T12:42:33.310Z,52.39
2019-03-15T12:45:01.475Z,52.98
2019-03-15T12:47:30.009Z,52.84
2019-03-15T12:49:58.009Z,52.28
2019-03-15T12:52:25.931Z,52.74
2019-03-15T12:54:53.898Z,53.47
2019-03-15T12:57:21.941Z,53.97
2019-03-15T12:59:50.055Z,54.32
2019-03-15T13:02:20.317Z,53.30
2019-03-15T13:04:51.939Z,52.20
2019-03-15T13:07:18.941Z,52.63
2019-03-15T13:09:47.015Z,52.68
2019-03-15T13:12:14.939Z,51.00
2019-03-15T13:14:42.961Z,50.94
2019-03-15T13:17:11.375Z,51.21
2019-03-15T13:19:39.267Z,50.73
2019-03-15T13:22:07.195Z,50.73
2019-03-15T13:24:35.296Z,51.71
2019-03-15T13:27:08.036Z,51.13
2019-03-15T13:29:36.173Z,51.63
2019-03-15T13:32:04.294Z,51.83
2019-03-15T13:34:32.411Z,52.40
2019-03-15T13:37:00.469Z,52.60
2019-03-15T13:39:28.461Z,53.03
2019-03-15T13:41:56.326Z,53.47
2019-03-15T13:44:26.226Z,54.07
2019-03-15T13:46:55.051Z,53.33
2019-03-15T13:49:23.057Z,51.03
2019-03-15T13:51:50.992Z,51.17
2019-03-15T13:54:19.002Z,50.38
2019-03-15T13:56:48.476Z,50.46
2019-03-15T13:59:16.614Z,49.80
2019-03-15T14:01:44.657Z,50.83
2019-03-15T14:04:12.649Z,51.40
2019-03-15T14:06:46.541Z,51.40
2019-03-15T14:09:14.640Z,51.35
2019-03-15T14:11:42.667Z,50.91
2019-03-15T14:14:10.647Z,51.52
2019-03-15T14:16:38.522Z,52.01
2019-03-15T14:19:06.753Z,52.43
2019-03-15T14:21:34.865Z,52.36
2019-03-15T14:24:03.069Z,52.40
2019-03-15T14:26:30.999Z,53.02
2019-03-15T14:29:09.372Z,52.51
2019-03-15T14:31:37.198Z,53.10
2019-03-15T14:34:05.217Z,53.62
2019-03-15T14:36:33.151Z,53.11
2019-03-15T14:39:01.490Z,53.08
2019-03-15T14:41:29.675Z,53.59
2019-03-15T14:43:57.754Z,53.81
2019-03-15T14:46:25.747Z,54.60
2019-03-15T14:48:53.729Z,55.61
2019-03-15T14:51:21.919Z,54.51
2019-03-15T14:53:49.842Z,54.32
2019-03-15T14:56:17.882Z,55.02
2019-03-15T14:58:45.863Z,54.72
2019-03-15T15:01:13.970Z,54.72
2019-03-15T15:03:41.900Z,54.09
2019-03-15T15:06:09.994Z,54.79
2019-03-15T15:08:37.955Z,54.25
2019-03-15T15:11:05.953Z,54.76
2019-03-15T15:13:34.010Z,54.62
2019-03-15T15:16:02.171Z,54.62
2019-03-15T15:18:30.176Z,55.05
2019-03-15T15:20:58.410Z,55.38
2019-03-15T15:23:26.386Z,55.33
2019-03-15T15:25:54.407Z,55.12
2019-03-15T15:28:22.448Z,54.82
2019-03-15T15:30:50.575Z,54.53
2019-03-15T15:33:19.334Z,54.92
2019-03-15T15:35:47.451Z,54.96
2019-03-15T15:38:15.412Z,55.32
2019-03-15T15:40:43.419Z,55.09
2019-03-15T15:43:11.773Z,54.82
2019-03-15T15:45:39.886Z,54.82
2019-03-15T15:48:08.009Z,55.35
2019-03-15T15:50:36.985Z,55.79
2019-03-15T15:53:05.843Z,55.79
2019-03-15T15:55:34.037Z,55.91
2019-03-15T15:58:02.074Z,56.14
2019-03-15T16:00:30.077Z,55.37
2019-03-15T16:02:58.129Z,55.37
2019-03-15T16:05:26.166Z,55.70
2019-03-15T16:07:56.556Z,55.84
2019-03-15T16:10:25.529Z,56.95
2019-03-15T16:12:53.512Z,56.95
2019-03-15T16:15:21.731Z,57.66
2019-03-15T16:17:49.808Z,58.04
2019-03-15T16:20:17.809Z,57.91
2019-03-15T16:22:45.983Z,58.17
2019-03-15T16:25:14.125Z,58.51
2019-03-15T16:27:42.015Z,58.37
2019-03-15T16:30:11.352Z,58.22
2019-03-15T16:32:39.394Z,58.04
2019-03-15T16:35:09.164Z,58.25
2019-03-15T16:37:37.165Z,58.52
2019-03-15T16:40:05.590Z,58.65
2019-03-15T16:42:33.602Z,58.38
2019-03-15T16:45:01.541Z,58.64
2019-03-15T16:47:29.575Z,58.91
2019-03-15T16:49:57.571Z,58.83
2019-03-15T16:52:25.484Z,59.57
2019-03-15T16:54:53.535Z,59.63
2019-03-15T16:57:21.571Z,59.95
2019-03-15T16:59:49.641Z,60.17
2019-03-15T17:02:17.779Z,60.11
2019-03-15T17:04:46.252Z,60.32
2019-03-15T17:07:15.166Z,60.56
2019-03-15T17:09:43.120Z,60.56
2019-03-15T17:12:11.343Z,61.00
2019-03-15T17:14:39.315Z,61.62
2019-03-15T17:17:07.432Z,62.29
2019-03-15T17:19:36.268Z,62.85
2019-03-15T17:22:05.136Z,62.79
2019-03-15T17:24:33.084Z,62.74
2019-03-15T17:27:01.189Z,63.07
2019-03-15T17:29:29.069Z,63.31
2019-03-15T17:31:58.100Z,63.64
2019-03-15T17:34:26.038Z,64.26
2019-03-15T17:37:06.177Z,64.79
2019-03-15T17:39:23.900Z,64.72
2019-03-15T17:41:52.186Z,64.85
2019-03-15T17:44:20.187Z,65.27
2019-03-15T17:46:48.164Z,66.13
2019-03-15T17:49:16.176Z,66.97
2019-03-15T17:51:44.352Z,67.58
2019-03-15T17:54:12.385Z,67.62
2019-03-15T17:56:40.486Z,67.73
2019-03-15T17:59:12.747Z,68.05
2019-03-15T18:01:38.517Z,69.34
2019-03-15T18:04:06.703Z,68.97
2019-03-15T18:06:43.834Z,69.48
2019-03-15T18:09:11.779Z,69.34
2019-03-15T18:11:39.900Z,69.51
2019-03-15T18:14:07.916Z,69.72
2019-03-15T18:16:35.962Z,69.86
2019-03-15T18:19:04.047Z,69.80
2019-03-15T18:21:32.156Z,70.41
2019-03-15T18:24:01.855Z,70.23
2019-03-15T18:26:30.608Z,70.42
2019-03-15T18:28:58.619Z,69.92
2019-03-15T18:31:29.894Z,70.10
2019-03-15T18:33:57.923Z,69.56
2019-03-15T18:36:25.997Z,69.54
2019-03-15T18:38:54.100Z,69.80
2019-03-15T18:41:22.757Z,69.36
2019-03-15T18:43:50.928Z,69.05
2019-03-15T18:46:18.972Z,69.94
2019-03-15T18:48:46.972Z,69.74
2019-03-15T18:51:15.075Z,69.65
2019-03-15T18:53:43.091Z,70.08
2019-03-15T18:56:11.336Z,69.75
2019-03-15T18:58:39.733Z,69.85
2019-03-15T19:01:07.676Z,69.90
2019-03-15T19:03:35.777Z,70.16
2019-03-15T19:06:03.831Z,70.29
2019-03-15T19:08:31.851Z,70.41
2019-03-15T19:10:59.938Z,70.58
2019-03-15T19:13:28.284Z,70.74
2019-03-15T19:15:56.321Z,70.76
2019-03-15T19:18:24.313Z,70.92
2019-03-15T19:20:52.448Z,70.88
2019-03-15T19:23:20.703Z,71.13
2019-03-15T19:25:49.373Z,70.82
2019-03-15T19:28:17.387Z,71.19
2019-03-15T19:30:45.437Z,71.09
2019-03-15T19:33:13.450Z,72.12
2019-03-15T19:35:41.307Z,71.43
2019-03-15T19:38:09.218Z,71.56
2019-03-15T19:40:49.629Z,71.76
2019-03-15T19:43:18.342Z,71.81
2019-03-15T19:45:46.399Z,72.24
2019-03-15T19:48:14.371Z,72.14
2019-03-15T19:50:42.290Z,72.31
2019-03-15T19:53:10.194Z,72.43
2019-03-15T19:55:38.128Z,72.14
2019-03-15T19:58:06.729Z,72.14
2019-03-15T20:00:34.792Z,72.19
2019-03-15T20:03:04.204Z,72.56
2019-03-15T20:05:32.271Z,73.02
2019-03-15T20:08:01.986Z,73.20
2019-03-15T20:10:30.030Z,73.22
2019-03-15T20:12:58.277Z,74.34
2019-03-15T20:15:26.215Z,75.09
2019-03-15T20:17:54.491Z,76.58
2019-03-15T20:20:22.621Z,76.01
2019-03-15T20:22:50.613Z,76.95
2019-03-15T20:25:19.506Z,78.88
2019-03-15T20:27:47.595Z,79.56
2019-03-15T20:30:21.500Z,79.91
2019-03-15T20:32:45.985Z,80.14
2019-03-15T20:35:14.110Z,81.00
2019-03-15T20:37:42.256Z,81.20
2019-03-15T20:40:10.524Z,82.01
2019-03-15T20:42:38.606Z,82.12
2019-03-15T20:45:08.427Z,82.14
2019-03-15T20:47:36.521Z,82.57
2019-03-15T20:50:05.251Z,82.95
2019-03-15T20:52:33.301Z,83.23
2019-03-15T20:55:01.402Z,83.04
2019-03-15T20:57:29.369Z,83.12
2019-03-15T20:59:57.503Z,83.70
2019-03-15T21:02:25.575Z,83.72
2019-03-15T21:04:53.599Z,84.55
2019-03-15T21:07:21.597Z,84.46
2019-03-15T21:09:49.754Z,84.91
2019-03-15T21:12:17.801Z,85.28
2019-03-15T21:14:46.531Z,85.28
2019-03-15T21:17:14.707Z,85.57
2019-03-15T21:19:43.043Z,85.45
2019-03-15T21:22:11.031Z,84.87
2019-03-15T21:24:39.073Z,85.97
2019-03-15T21:27:07.621Z,86.11
2019-03-15T21:29:35.649Z,86.48
2019-03-15T21:32:03.720Z,86.14
2019-03-15T21:34:31.883Z,86.02
2019-03-15T21:37:00.030Z,86.46
2019-03-15T21:39:28.054Z,86.73
2019-03-15T21:41:56.215Z,85.97
2019-03-15T21:44:24.698Z,86.08
2019-03-15T21:46:52.784Z,86.24
2019-03-15T21:49:20.953Z,86.07
2019-03-15T21:51:49.040Z,85.94
2019-03-15T21:54:17.259Z,85.72
2019-03-15T21:56:45.464Z,85.94
2019-03-15T21:59:13.577Z,85.82
2019-03-15T22:01:41.559Z,86.14
2019-03-15T22:04:10.094Z,85.97
2019-03-15T22:06:38.869Z,86.12
2019-03-15T22:09:07.316Z,86.17
2019-03-15T22:11:35.442Z,86.34
2019-03-15T22:14:04.353Z,86.26
2019-03-15T22:16:33.155Z,86.24
2019-03-15T22:19:01.134Z,85.91
2019-03-15T22:21:29.155Z,85.61
2019-03-15T22:23:57.316Z,84.96
2019-03-15T22:26:25.244Z,84.82
2019-03-15T22:28:53.784Z,84.21
2019-03-15T22:31:22.231Z,83.39
2019-03-15T22:33:50.564Z,82.16
2019-03-15T22:36:18.819Z,79.20
2019-03-15T22:38:46.963Z,77.44
2019-03-15T22:41:14.998Z,76.77
2019-03-15T22:43:43.048Z,76.06
2019-03-15T22:46:11.071Z,76.08
2019-03-15T22:48:41.836Z,74.75
2019-03-15T22:54:43.633Z,73.59
2019-03-15T22:57:11.618Z,72.78
2019-03-15T22:59:39.695Z,72.96
2019-03-15T23:02:08.030Z,72.56
2019-03-15T23:04:36.149Z,71.93
2019-03-15T23:07:05.114Z,70.96
2019-03-15T23:09:33.166Z,70.81
2019-03-15T23:12:01.416Z,71.96
2019-03-15T23:14:29.316Z,71.82
2019-03-15T23:16:57.240Z,72.22
2019-03-15T23:19:25.177Z,72.62
2019-03-15T23:21:53.369Z,72.91
2019-03-15T23:24:21.374Z,73.29
2019-03-15T23:26:49.480Z,72.80
2019-03-15T23:29:17.597Z,72.86
